ADDS METAR Data INFO
IDs: Format: Raw Decoded Include TAF

Data at: 1745 UTC 15 Dec 2017

KSUT 151725Z AUTO 24006KT 10SM CLR 13/09 A2995 RMK AO2 T01280085
KSUT 151705Z AUTO 25007KT 10SM CLR 13/08 A2997 RMK AO2 T01320082
KSUT 151645Z AUTO 24007KT 10SM CLR 13/08 A2997 RMK AO2 T01300078
KSUT 151625Z AUTO 24007KT 10SM CLR 13/07 A2999 RMK AO2 T01300074
KSUT 151605Z AUTO 23006KT 10SM CLR 13/07 A3000 RMK AO2 T01280072
KSUT 151545Z AUTO 25005KT 10SM CLR 13/07 A3000 RMK AO2 T01260074
KSUT 151525Z AUTO 26003KT 10SM CLR 12/07 A3002 RMK AO2 T01170074
KSUT 151505Z AUTO 00000KT 10SM CLR 11/08 A3001 RMK AO2 T01080076
KSUT 151445Z AUTO 00000KT 10SM CLR 10/08 A3000 RMK AO2 T01000075
KSUT 151425Z AUTO 00000KT 10SM CLR 10/07 A3000 RMK AO2 T00970072
KSUT 151405Z AUTO 00000KT 10SM CLR 08/07 A3000 RMK AO2 T00830071
KSUT 151345Z AUTO 00000KT 10SM CLR 07/07 A2999 RMK AO2 T00740074
KSUT 151325Z AUTO 00000KT 10SM CLR 07/07 A2998 RMK AO2 T00680068
KSUT 151305Z AUTO 00000KT 10SM CLR 06/06 A3000 RMK AO2 T00590059
KSUT 151245Z AUTO 00000KT 10SM CLR 06/06 A2999 RMK AO2 T00560056
KSUT 151225Z AUTO 00000KT 10SM CLR 05/05 A2999 RMK AO2 T00540054
KSUT 151205Z AUTO 00000KT 10SM CLR 06/06 A2999 RMK AO2 T00550055
KSUT 151145Z AUTO 00000KT 10SM CLR 06/06 A2999 RMK AO2 T00550055
KSUT 151125Z AUTO 00000KT 10SM CLR 06/06 A3000 RMK AO2 T00560056
KSUT 151105Z AUTO 00000KT 10SM CLR 05/05 A2999 RMK AO2 T00540054
KSUT 151045Z AUTO 00000KT 10SM CLR 06/06 A2999 RMK AO2 T00550055
KSUT 151025Z AUTO 00000KT 10SM CLR 05/05 A2999 RMK AO2 T00540054
KSUT 151005Z AUTO 00000KT 10SM CLR 06/06 A2999 RMK AO2 T00550055
KSUT 150945Z AUTO 00000KT 10SM CLR 06/06 A2998 RMK AO2 T00560056
KSUT 150925Z AUTO 00000KT 10SM CLR 06/06 A3000 RMK AO2 T00580058
KSUT 150905Z AUTO 00000KT 10SM CLR 06/06 A2999 RMK AO2 T00600060
KSUT 150845Z AUTO 00000KT 10SM CLR 06/06 A2999 RMK AO2 T00570057
KSUT 150825Z AUTO 00000KT 10SM CLR 05/05 A2999 RMK AO2 T00530053
KSUT 150805Z AUTO 00000KT 10SM CLR 06/06 A2999 RMK AO2 T00550055
KSUT 150745Z AUTO 00000KT 10SM CLR 06/06 A2999 RMK AO2 T00550055
KSUT 150725Z AUTO 00000KT 10SM CLR 06/06 A2998 RMK AO2 T00550055
KSUT 150705Z AUTO 00000KT 10SM CLR 06/06 A2999 RMK AO2 T00570057
KSUT 150645Z AUTO 00000KT 10SM CLR 06/06 A2999 RMK AO2 T00580057
KSUT 150625Z AUTO 00000KT 10SM CLR 06/06 A3000 RMK AO2 T00590055
KSUT 150605Z AUTO 00000KT 10SM CLR 06/06 A3000 RMK AO2 T00620057
KSUT 150545Z AUTO 00000KT 10SM CLR 06/06 A3000 RMK AO2 T00610060
KSUT 150525Z AUTO 00000KT 10SM CLR 06/06 A3000 RMK AO2 T00610061
KSUT 150505Z AUTO 00000KT 10SM CLR 06/06 A3000 RMK AO2 T00590059
KSUT 150445Z AUTO 00000KT 10SM CLR 06/06 A3000 RMK AO2 T00570057
KSUT 150425Z AUTO 00000KT 10SM CLR 06/06 A3000 RMK AO2 T00570057
KSUT 150405Z AUTO 00000KT 10SM CLR 06/06 A3001 RMK AO2 T00620062
KSUT 150345Z AUTO 00000KT 10SM CLR 06/06 A3001 RMK AO2 T00580057
KSUT 150325Z AUTO 00000KT 10SM CLR 06/06 A3000 RMK AO2 T00620062
KSUT 150305Z AUTO 00000KT 10SM CLR 06/06 A3000 RMK AO2 T00640061
KSUT 150245Z AUTO 00000KT 10SM CLR 07/06 A2999 RMK AO2 T00660057
KSUT 150225Z AUTO 00000KT 10SM CLR 07/06 A3000 RMK AO2 T00680060
KSUT 150205Z AUTO 00000KT 10SM CLR 07/06 A3000 RMK AO2 T00680055
KSUT 150145Z AUTO 00000KT 10SM CLR 07/05 A3000 RMK AO2 T00650054
KSUT 150125Z AUTO 00000KT 10SM CLR 07/06 A2999 RMK AO2 T00670055
KSUT 150105Z AUTO 00000KT 10SM CLR 07/06 A2998 RMK AO2 T00700056
KSUT 150045Z AUTO 00000KT 10SM CLR 07/06 A2998 RMK AO2 T00700058
KSUT 150025Z AUTO 00000KT 10SM CLR 07/06 A2998 RMK AO2 T00730060
KSUT 150005Z AUTO 00000KT 10SM CLR 08/06 A2997 RMK AO2 T00760062
KSUT 142345Z AUTO 00000KT 10SM CLR 08/06 A2996 RMK AO2 T00780061
KSUT 142325Z AUTO 00000KT 10SM CLR 09/06 A2995 RMK AO2 T00850062
KSUT 142305Z AUTO 00000KT 10SM CLR 09/06 A2994 RMK AO2 T00940063
KSUT 142245Z AUTO 00000KT 10SM CLR 10/06 A2994 RMK AO2 T01000064
KSUT 142225Z AUTO 00000KT 10SM CLR 10/06 A2992 RMK AO2 T01000062
KSUT 142205Z AUTO 00000KT 10SM CLR 11/06 A2992 RMK AO2 T01070060
KSUT 142145Z AUTO 24003KT 10SM CLR 11/06 A2991 RMK AO2 T01100057
KSUT 142125Z AUTO 24004KT 10SM CLR 12/05 A2991 RMK AO2 T01150053
KSUT 142105Z AUTO 25004KT 10SM CLR 12/05 A2990 RMK AO2 T01170051
KSUT 142045Z AUTO 23005KT 10SM CLR 12/05 A2990 RMK AO2 T01150049
KSUT 142025Z AUTO 23006KT 10SM CLR 12/04 A2989 RMK AO2 T01200043
KSUT 142005Z AUTO 24006KT 10SM CLR 13/04 A2988 RMK AO2 T01250042
KSUT 141945Z AUTO 24007KT 10SM CLR 13/04 A2988 RMK AO2 T01280040
KSUT 141925Z AUTO 24009KT 10SM CLR 13/03 A2988 RMK AO2 T01310033
KSUT 141905Z AUTO 24007KT 10SM CLR 13/03 A2988 RMK AO2 T01320029
KSUT 141845Z AUTO 24007KT 10SM CLR 13/03 A2988 RMK AO2 T01320029
KSUT 141825Z AUTO 23006KT 10SM CLR 13/03 A2988 RMK AO2 T01320027
KSUT 141805Z AUTO 22005KT 10SM CLR 13/02 A2987 RMK AO2 T01300023
KSUT 141745Z AUTO 22005KT 10SM CLR 13/02 A2988 RMK AO2 T01300021
KSUT 141725Z AUTO 24007KT 10SM CLR 13/01 A2988 RMK AO2 T01320014
KSUT 141705Z AUTO 23005KT 10SM CLR 13/01 A2989 RMK AO2 T01280008
KSUT 141645Z AUTO 24007KT 10SM CLR 13/01 A2989 RMK AO2 T01250008
KSUT 141625Z AUTO 23006KT 10SM CLR 12/00 A2990 RMK AO2 T01200000
KSUT 141605Z AUTO 24008KT 10SM CLR 12/00 A2990 RMK AO2 T01200000
KSUT 141545Z AUTO 22007KT 10SM CLR 12/M01 A2990 RMK AO2 T01201010
KSUT 141525Z AUTO 24006KT 10SM CLR 12/M01 A2990 RMK AO2 T01151012
KSUT 141505Z AUTO 29006KT 10SM CLR 10/M02 A2990 RMK AO2 T01041019
KSUT 141445Z AUTO 26009KT 10SM CLR 10/M02 A2989 RMK AO2 T01011016
KSUT 141425Z AUTO 26010G15KT 10SM CLR 10/M02 A2989 RMK AO2 T00951018
KSUT 141405Z AUTO 27008G16KT 10SM CLR 09/M02 A2988 RMK AO2 T00901022
KSUT 141345Z AUTO 26009KT 10SM CLR 09/M02 A2988 RMK AO2 T00871020
KSUT 141325Z AUTO 26008KT 10SM CLR 08/M02 A2987 RMK AO2 T00801024
KSUT 141305Z AUTO 26010KT 10SM CLR 08/M02 A2986 RMK AO2 T00781016
KSUT 141245Z AUTO 26007G15KT 10SM CLR 07/M02 A2986 RMK AO2 T00711020
KSUT 141225Z AUTO 27010KT 10SM CLR 07/M02 A2985 RMK AO2 T00731018
KSUT 141205Z AUTO 27011G18KT 10SM CLR 08/M02 A2985 RMK AO2 T00771020
KSUT 141145Z AUTO 26011G18KT 10SM CLR 08/M01 A2984 RMK AO2 T00791014
KSUT 141125Z AUTO 27012G19KT 10SM CLR 09/M01 A2984 RMK AO2 T00851010
KSUT 141105Z AUTO 26014G23KT 10SM CLR 09/M01 A2983 RMK AO2 T00871014
KSUT 141045Z AUTO 26016G27KT 10SM CLR 09/M01 A2982 RMK AO2 T00901010
KSUT 141025Z AUTO 26013G24KT 10SM CLR 09/00 A2982 RMK AO2 T00921005
KSUT 141005Z AUTO 26017G25KT 10SM CLR 09/00 A2981 RMK AO2 T00930000
KSUT 140945Z AUTO 25014G25KT 10SM CLR 10/00 A2980 RMK AO2 T00961001
KSUT 140925Z AUTO 25015G23KT 10SM CLR 10/00 A2980 RMK AO2 T00961004
KSUT 140905Z AUTO 25016G22KT 10SM CLR 10/00 A2980 RMK AO2 T00971001
KSUT 140845Z AUTO 25014G19KT 10SM CLR 10/00 A2982 RMK AO2 T00951001
KSUT 140825Z AUTO 25014G25KT 10SM CLR 10/00 A2982 RMK AO2 T00961005
KSUT 140805Z AUTO 25016G25KT 10SM CLR 10/M01 A2982 RMK AO2 T00971013
KSUT 140745Z AUTO 25018G26KT 10SM CLR 10/M01 A2983 RMK AO2 T00971012
KSUT 140725Z AUTO 25017G28KT 10SM CLR 10/M01 A2984 RMK AO2 T00961012
KSUT 140705Z AUTO 25016G29KT 10SM CLR 10/M01 A2984 RMK AO2 T00961012
KSUT 140645Z AUTO 25016G27KT 10SM CLR 10/M01 A2984 RMK AO2 T00971010
KSUT 140625Z AUTO 25016G24KT 10SM CLR 10/00 A2984 RMK AO2 T00971001
KSUT 140605Z AUTO 25017G22KT 10SM CLR 10/00 A2984 RMK AO2 T00970000